Terminal Aerodrome Forecast
Issued by NWS

Home | Current Version | Previous Version | Text Only | Print | Product List | Glossary On
Versions: 1 2 3 4 5 6 7 8 9 10 11 12 13 14 15 16 17 18 19 20
019
FTUS42 KMHX 300536
TAFISO
TAF
KISO 300536Z 3006/3106 VRB04KT P6SM FEW040 SCT100
     FM300800 VRB03KT 5SM BR SCT007 BKN020
     FM301300 04007KT P6SM SCT020 BKN040
     FM301700 04009KT P6SM VCSH BKN040
     FM302200 06005KT P6SM BKN040
      AMD LTD TO CLD VIS AND WIND=

USA.gov is the U.S. government's official web portal to all federal, state and local government web resources and services.